Main page
METAR-TAF:

METAR-TAF

Airports :

J6-a, Netherlands

Oil platform

latitude: 53-49-27N, longitude: 2-56-43E, elevation: 34 m

Current weather observation

The report was made 16 minutes ago, at 08:55 UTC
Wind 19 kt from the Southwest
Temperature 8°C
Humidity 100%
Pressure 1018 hPa
Visibility: 0900 m
fog

METAR: EHJA 290855Z AUTO 22019KT 0900 FG BKN000/// BKN002/// BKN006/// 08/08 Q1018

Time: 11:11 (09:11 UTC)


TAF: missing

Weather observations and forecasts of more than 4000 airports (METAR and TAF reports).

The available stations are represented by yellow and red dots on the map.

Hover mouse over dot to see the name of the station.

Then click to see weather observations and forecasts.

To change the map : click on the green buttons with a black cross to zoom in, on the green button with a dash to zoom out, or on the green arrows for adjacent maps.


METAR-TAF: